Tegucigalpa, Honduras
Current Conditions -  °F | °C
As of 11:00 PM on Tuesday 21 Oct 2014 (Local Time) from MHTG Reporting Station
Broken Clouds Broken Clouds  
Wind Chill: 21°   Ceiling: 2800
Heat Index: 21°   Visibility: 6mi
Dew Point: 19°   Wind: 3mph
Humidity: 88%   Direction: 160°SSE
Pressure: 30.03"   Gusts: NA
Location:  14.09°N, 87.22°W
Report Text: MHTG 220500Z 16003KT 9999 BKN028 SCT080 21/19 Q1017 A3003NOSIG
Loading
Personal Weather Stations






























Interactive Weather Map
Tropical Storm Tracking
New forecast layout! Learn more

10-Day Weather Forecast

Advertisements
Track Severe Weather on mobile